Time;durP1;ratioP1;P1;durP2;ratioP2;P2;SDS_P1;SDS_P2;PMS_P1;PMS_P2;Temp;Humidity;BMP_temperature;BMP_pressure;BME280_temperature;BME280_humidity;BME280_pressure;Samples;Min_cycle;Max_cycle;Signal;HPM_P1;HPM_P2
2022/09/21 00:01:26;;;;;;;8.70;4.30;;;;;;;8.21;84.12;99253.41;1619977;88;21044;-87
2022/09/21 00:04:02;;;;;;;9.88;4.20;;;;;;;8.20;84.25;99254.72;1634656;87;21026;-86
2022/09/21 00:06:33;;;;;;;6.50;3.77;;;;;;;8.20;84.32;99256.02;1664877;86;20970;-89
2022/09/21 00:09:03;;;;;;;9.10;4.08;;;;;;;8.25;85.01;99252.94;1665248;86;21082;-85
2022/09/21 00:11:34;;;;;;;8.93;4.37;;;;;;;8.30;84.89;99252.45;1670433;86;21554;-86
2022/09/21 00:14:09;;;;;;;8.05;4.22;;;;;;;8.35;84.84;99249.34;1663136;85;20998;-87
2022/09/21 00:16:37;;;;;;;8.73;4.22;;;;;;;8.38;85.19;99247.17;1681164;85;21041;-89
2022/09/21 00:19:05;;;;;;;10.23;4.08;;;;;;;8.44;84.90;99252.30;1675142;85;21553;-88
2022/09/21 00:21:34;;;;;;;7.97;4.05;;;;;;;8.47;84.61;99253.09;1674848;85;21497;-87
2022/09/21 00:24:02;;;;;;;8.23;3.70;;;;;;;8.49;84.41;99253.08;1677850;85;21097;-84
2022/09/21 00:26:30;;;;;;;8.60;4.17;;;;;;;8.54;84.69;99252.14;1683324;85;21086;-86
2022/09/21 00:29:01;;;;;;;7.40;4.15;;;;;;;8.56;84.17;99243.05;1653102;85;21014;-85
2022/09/21 00:31:30;;;;;;;7.95;4.22;;;;;;;8.56;84.52;99249.08;1651082;87;21046;-88
2022/09/21 00:33:59;;;;;;;9.05;4.33;;;;;;;8.59;84.57;99244.28;1629105;87;21042;-84
2022/09/21 00:36:27;;;;;;;6.67;3.90;;;;;;;8.58;84.32;99245.63;1656976;86;20992;-83
2022/09/21 00:38:59;;;;;;;8.13;3.62;;;;;;;8.60;84.43;99252.50;1619544;87;21084;-84
2022/09/21 00:41:30;;;;;;;10.53;4.55;;;;;;;8.66;84.55;99254.14;1629605;87;21006;-86
2022/09/21 00:44:21;;;;;;;11.48;4.15;;;;;;;8.66;84.53;99250.26;1637289;86;21042;-89
2022/09/21 00:46:51;;;;;;;8.53;4.28;;;;;;;8.72;84.60;99250.16;1639618;87;21026;-88
2022/09/21 00:49:21;;;;;;;7.87;4.08;;;;;;;8.75;84.73;99244.91;1638061;87;21022;-85
2022/09/21 00:51:52;;;;;;;6.83;4.62;;;;;;;8.74;84.18;99247.11;1659850;86;20999;-88
2022/09/21 00:54:25;;;;;;;7.92;4.10;;;;;;;8.74;84.18;99251.00;1647250;87;21201;-86
2022/09/21 00:56:54;;;;;;;12.55;4.10;;;;;;;8.76;84.00;99246.64;1626477;87;21015;-84
2022/09/21 00:59:22;;;;;;;8.43;4.60;;;;;;;8.74;83.76;99247.11;1648184;87;20975;-83
2022/09/21 01:01:50;;;;;;;11.73;4.72;;;;;;;8.72;83.67;99247.57;1654339;87;21011;-85
2022/09/21 01:04:18;;;;;;;9.53;4.72;;;;;;;8.71;83.61;99247.14;1675944;86;21510;-87
2022/09/21 01:06:47;;;;;;;10.55;4.65;;;;;;;8.72;83.79;99254.05;1652794;86;21054;-89
2022/09/21 01:09:16;;;;;;;9.23;4.37;;;;;;;8.72;83.67;99239.80;1685279;85;20993;-87
2022/09/21 01:12:32;;;;;;;12.45;5.05;;;;;;;8.69;83.50;99242.42;1618553;87;21056;-88
2022/09/21 01:15:14;;;;;;;10.68;4.12;;;;;;;8.67;83.56;99238.99;1639106;86;21017;-88
2022/09/21 01:18:06;;;;;;;10.05;4.17;;;;;;;8.66;83.79;99246.37;1660028;85;21080;-86
2022/09/21 01:21:13;;;;;;;9.58;4.30;;;;;;;8.64;83.79;99242.50;1665259;86;20999;-87
2022/09/21 01:23:52;;;;;;;9.25;4.80;;;;;;;8.61;83.45;99244.27;1669159;86;21027;-88
2022/09/21 01:27:01;;;;;;;10.00;4.75;;;;;;;8.58;83.84;99239.15;1668415;86;20974;-86
2022/09/21 01:29:46;;;;;;;11.40;4.25;;;;;;;8.56;83.53;99236.13;1671402;85;21457;-88
2022/09/21 01:32:31;;;;;;;8.65;4.58;;;;;;;8.48;82.83;99235.83;1637790;85;21525;-87
2022/09/21 01:35:16;;;;;;;7.75;4.15;;;;;;;8.42;83.35;99232.04;1681506;85;21001;-84
2022/09/21 01:37:59;;;;;;;8.23;4.50;;;;;;;8.43;83.79;99232.44;1673772;85;20974;-87
2022/09/21 01:40:41;;;;;;;9.73;4.75;;;;;;;8.41;83.97;99232.45;1670142;84;20993;-87
2022/09/21 01:43:14;;;;;;;8.00;4.80;;;;;;;8.46;84.58;99227.23;1675410;84;21442;-88
2022/09/21 01:45:46;;;;;;;10.18;4.28;;;;;;;8.51;84.44;99225.41;1689656;85;21477;-85
2022/09/21 01:48:16;;;;;;;9.00;4.00;;;;;;;8.54;84.55;99227.52;1675490;84;20993;-84
2022/09/21 01:50:49;;;;;;;8.45;4.75;;;;;;;8.59;84.37;99228.73;1662680;85;21479;-89
2022/09/21 01:53:25;;;;;;;9.03;4.55;;;;;;;8.63;84.66;99226.96;1671057;85;21040;-84
2022/09/21 01:56:00;;;;;;;10.82;4.17;;;;;;;8.63;84.24;99226.52;1663374;85;21066;-88
2022/09/21 01:58:51;;;;;;;13.95;5.00;;;;;;;8.61;83.62;99225.68;1668530;86;20997;-84
2022/09/21 02:01:22;;;;;;;9.18;4.47;;;;;;;8.61;83.58;99224.39;1673934;85;20959;-86
2022/09/21 02:03:57;;;;;;;9.28;4.75;;;;;;;8.59;83.23;99221.41;1667961;86;21012;-84
2022/09/21 02:06:28;;;;;;;17.27;4.78;;;;;;;8.55;83.71;99224.06;1664729;85;20974;-88
2022/09/21 02:08:55;;;;;;;14.23;4.60;;;;;;;8.59;84.19;99224.85;1657841;85;21083;-87
2022/09/21 02:11:23;;;;;;;10.48;5.20;;;;;;;8.60;83.97;99223.14;1620919;88;21022;-87
2022/09/21 02:13:53;;;;;;;10.95;4.25;;;;;;;8.63;84.19;99232.14;1625226;87;21055;-82
2022/09/21 02:17:16;;;;;;;7.40;4.55;;;;;;;8.63;84.23;99233.44;1629138;88;21012;-86
2022/09/21 02:20:05;;;;;;;10.30;4.87;;;;;;;8.61;84.21;99224.83;1631052;87;21067;-88
2022/09/21 02:22:59;;;;;;;7.58;4.28;;;;;;;8.63;84.38;99229.55;1634122;88;21606;-87
2022/09/21 02:25:49;;;;;;;9.80;4.33;;;;;;;8.61;84.35;99233.45;1615851;87;21036;-89
2022/09/21 02:28:28;;;;;;;7.42;4.40;;;;;;;8.58;84.76;99233.97;1664607;85;21021;-87
2022/09/21 02:31:15;;;;;;;9.23;4.35;;;;;;;8.58;84.64;99237.86;1620144;87;21040;-86
2022/09/21 02:33:54;;;;;;;11.85;4.30;;;;;;;8.58;84.73;99246.92;1659424;85;20937;-85
2022/09/21 02:36:49;;;;;;;10.05;4.30;;;;;;;8.61;84.98;99240.38;1660590;86;21083;-85
2022/09/21 02:39:40;;;;;;;9.33;4.60;;;;;;;8.65;84.80;99239.45;1648590;85;21078;-86
2022/09/21 02:42:12;;;;;;;10.25;4.65;;;;;;;8.65;84.85;99238.16;1661213;86;21035;-85
2022/09/21 02:44:53;;;;;;;7.70;4.08;;;;;;;8.65;84.54;99244.64;1664162;86;21011;-87
2022/09/21 02:47:32;;;;;;;8.80;4.62;;;;;;;8.63;84.49;99245.11;1667247;85;21027;-84
2022/09/21 02:50:10;;;;;;;7.53;4.40;;;;;;;8.64;84.80;99241.20;1686831;85;21021;-85
2022/09/21 02:52:42;;;;;;;11.97;5.22;;;;;;;8.67;85.01;99247.62;1678333;83;20949;-89
2022/09/21 02:55:12;;;;;;;8.08;4.80;;;;;;;8.71;84.66;99251.91;1701473;83;21121;-89
2022/09/21 02:57:40;;;;;;;6.87;4.65;;;;;;;8.72;84.94;99244.53;1639662;85;20992;-84
2022/09/21 03:00:09;;;;;;;16.90;4.55;;;;;;;8.75;84.99;99241.02;1656007;86;21010;-89
2022/09/21 03:02:43;;;;;;;14.50;4.87;;;;;;;8.81;84.84;99237.04;1681844;84;20998;-88
2022/09/21 03:05:12;;;;;;;;;;;;;;;8.85;85.16;99243.03;1705942;84;20921;-86
2022/09/21 03:07:40;;;;;;;11.78;4.50;;;;;;;8.84;84.31;99245.23;1676103;84;20098;-83
2022/09/21 03:10:09;;;;;;;11.40;5.37;;;;;;;8.82;84.94;99248.29;1640754;87;21017;-85
2022/09/21 03:12:37;;;;;;;8.00;4.80;;;;;;;8.85;85.34;99245.18;1653900;85;21089;-84
2022/09/21 03:15:05;;;;;;;10.05;4.85;;;;;;;8.90;85.40;99246.42;1666581;85;21001;-87
2022/09/21 03:17:33;;;;;;;8.45;4.78;;;;;;;8.90;84.69;99251.61;1691665;84;21025;-81
2022/09/21 03:20:01;;;;;;;7.62;4.87;;;;;;;8.89;84.55;99255.07;1700645;84;20948;-85
2022/09/21 03:22:29;;;;;;;10.00;4.72;;;;;;;8.90;84.65;99255.05;1688714;84;21035;-89
2022/09/21 03:24:57;;;;;;;11.38;5.10;;;;;;;8.94;84.97;99256.72;1642962;87;20999;-87
2022/09/21 03:27:25;;;;;;;9.48;4.62;;;;;;;8.92;84.71;99250.70;1653883;86;21025;-88
2022/09/21 03:29:52;;;;;;;9.83;4.55;;;;;;;8.90;84.48;99253.76;1679269;85;20973;-88
2022/09/21 03:32:20;;;;;;;12.50;5.03;;;;;;;8.90;84.04;99261.98;1691776;84;20960;-85
2022/09/21 03:34:48;;;;;;;9.30;5.08;;;;;;;8.80;83.84;99262.56;1632142;87;21029;-88
2022/09/21 03:37:15;;;;;;;9.15;4.92;;;;;;;8.75;84.35;99265.65;1664815;86;21023;-89
2022/09/21 03:39:44;;;;;;;11.03;4.92;;;;;;;8.74;84.86;99265.25;1687709;85;21001;-85
2022/09/21 03:42:12;;;;;;;8.30;4.85;;;;;;;8.78;84.72;99270.80;1694957;84;20976;-88
2022/09/21 03:44:40;;;;;;;8.20;5.10;;;;;;;8.75;84.16;99275.61;1661667;86;21069;-88
2022/09/21 03:47:07;;;;;;;9.88;4.72;;;;;;;8.72;84.62;99283.41;1672268;86;21501;-87
2022/09/21 03:49:35;;;;;;;6.83;4.37;;;;;;;8.76;84.83;99281.64;1661854;86;21025;-86
2022/09/21 03:52:03;;;;;;;13.15;4.70;;;;;;;8.81;85.42;99283.70;1669747;86;21038;-87
2022/09/21 03:54:31;;;;;;;7.78;4.20;;;;;;;8.80;84.15;99285.89;1671180;86;21601;-81
2022/09/21 03:56:59;;;;;;;8.15;4.33;;;;;;;8.75;84.74;99286.39;1671097;86;21525;-82
2022/09/21 03:59:26;;;;;;;9.93;5.22;;;;;;;8.78;85.09;99289.40;1670804;86;21513;-86
2022/09/21 04:01:54;;;;;;;10.98;4.72;;;;;;;8.82;85.42;99286.73;1691000;84;20941;-87
2022/09/21 04:04:21;;;;;;;10.28;4.67;;;;;;;8.79;84.53;99289.35;1691884;84;20991;-88
2022/09/21 04:06:49;;;;;;;9.25;4.90;;;;;;;8.81;85.48;99290.19;1686368;85;21021;-89
2022/09/21 04:09:17;;;;;;;11.15;5.03;;;;;;;8.83;85.31;99284.53;1682089;85;21065;-88
2022/09/21 04:11:47;;;;;;;12.45;4.72;;;;;;;8.89;85.72;99283.17;1665203;86;21002;-89
2022/09/21 04:14:14;;;;;;;12.47;4.58;;;;;;;8.91;84.91;99280.12;1663990;85;21502;-85
2022/09/21 04:16:42;;;;;;;9.95;4.80;;;;;;;8.92;85.22;99279.67;1655873;86;21037;-87
2022/09/21 04:19:10;;;;;;;10.50;5.00;;;;;;;8.95;85.42;99284.80;1664406;85;21510;-87
2022/09/21 04:21:37;;;;;;;20.10;4.72;;;;;;;9.00;85.26;99287.34;1646374;86;21486;-88
2022/09/21 04:24:05;;;;;;;14.38;4.40;;;;;;;9.01;85.13;99292.92;1668652;86;21023;-86
2022/09/21 04:26:34;;;;;;;9.93;4.67;;;;;;;9.03;85.31;99296.34;1667764;86;20998;-88
2022/09/21 04:29:03;;;;;;;6.47;3.85;;;;;;;9.08;85.39;99296.70;1664179;86;21041;-87
2022/09/21 04:31:33;;;;;;;7.22;4.08;;;;;;;9.14;84.93;99302.23;1664931;86;21522;-86
2022/09/21 04:34:01;;;;;;;9.40;4.90;;;;;;;9.10;84.52;99302.72;1668806;86;21006;-87
2022/09/21 04:36:31;;;;;;;7.92;4.05;;;;;;;9.11;84.92;99303.56;1655018;86;20998;-87
2022/09/21 04:39:01;;;;;;;11.03;4.60;;;;;;;9.14;85.11;99301.78;1664903;86;20966;-88
2022/09/21 04:41:29;;;;;;;7.17;3.80;;;;;;;9.17;85.00;99296.98;1657887;86;21006;-86
2022/09/21 04:43:56;;;;;;;8.35;4.55;;;;;;;9.19;85.17;99301.73;1668521;86;21077;-88
2022/09/21 04:46:24;;;;;;;9.73;4.87;;;;;;;9.22;85.20;99302.96;1664410;85;20994;-88
2022/09/21 04:48:52;;;;;;;9.75;4.87;;;;;;;9.25;85.11;99307.23;1658458;86;21054;-87
2022/09/21 04:51:20;;;;;;;8.40;4.62;;;;;;;9.24;84.96;99307.69;1642917;86;20995;-85
2022/09/21 04:53:47;;;;;;;8.18;4.15;;;;;;;9.26;84.52;99306.37;1645650;87;21032;-88
2022/09/21 04:56:16;;;;;;;13.43;4.42;;;;;;;9.25;84.92;99312.42;1641742;87;21049;-84
2022/09/21 04:58:43;;;;;;;9.48;4.58;;;;;;;9.29;85.07;99307.18;1642542;87;21011;-89
2022/09/21 05:01:11;;;;;;;6.75;4.30;;;;;;;9.33;84.75;99318.34;1643241;87;21026;-89
2022/09/21 05:03:39;;;;;;;12.82;5.10;;;;;;;9.35;84.71;99313.56;1645439;87;21066;-86
2022/09/21 05:06:07;;;;;;;14.35;5.03;;;;;;;9.35;85.08;99312.69;1646935;87;20987;-88
2022/09/21 05:11:21;;;;;;;11.15;5.00;;;;;;;9.46;85.06;99308.63;1644809;87;21039;-85
2022/09/21 05:13:49;;;;;;;10.82;5.53;;;;;;;9.52;85.18;99322.34;1640681;86;21026;-87
2022/09/21 05:16:17;;;;;;;10.35;5.12;;;;;;;9.54;85.21;99313.23;1649013;87;21064;-88
2022/09/21 05:18:45;;;;;;;10.80;4.92;;;;;;;9.56;84.67;99315.37;1644144;86;21030;-87
2022/09/21 05:21:14;;;;;;;10.15;4.85;;;;;;;9.58;84.72;99318.79;1644840;87;21507;-88
2022/09/21 05:23:42;;;;;;;11.55;5.03;;;;;;;9.61;84.43;99320.47;1642306;87;21148;-84
2022/09/21 05:26:09;;;;;;;12.82;5.28;;;;;;;9.61;84.58;99319.17;1642749;87;21010;-87
2022/09/21 05:28:37;;;;;;;7.62;4.47;;;;;;;9.62;84.29;99310.52;1638570;87;21054;-89
2022/09/21 05:31:31;;;;;;;9.30;5.37;;;;;;;9.66;84.47;99320.80;1635409;87;21058;-86
2022/09/21 05:34:09;;;;;;;;;;;;;;;9.73;84.41;99326.31;1645203;87;21034;-86
2022/09/21 05:36:57;;;;;;;9.35;5.65;;;;;;;9.78;84.48;99329.27;1646101;87;20150;-90
2022/09/21 05:39:25;;;;;;;9.53;5.87;;;;;;;9.81;84.15;99330.49;1647581;87;21011;-88
2022/09/21 05:41:54;;;;;;;12.68;6.78;;;;;;;9.81;84.54;99334.39;1642418;87;21022;-85
2022/09/21 05:44:22;;;;;;;15.93;6.55;;;;;;;9.88;84.91;99334.25;1641962;87;21039;-87
2022/09/21 05:46:58;;;;;;;10.18;5.85;;;;;;;9.90;84.57;99325.98;1649089;87;21007;-89
2022/09/21 05:49:50;;;;;;;9.80;5.85;;;;;;;9.95;84.64;99326.77;1657233;86;20986;-88
2022/09/21 05:52:29;;;;;;;13.05;6.15;;;;;;;9.99;84.62;99327.58;1660073;86;21035;-86
2022/09/21 05:55:34;;;;;;;16.77;7.03;;;;;;;10.07;84.61;99331.33;1668783;84;21113;-85
2022/09/21 05:58:18;;;;;;;13.55;6.62;;;;;;;10.12;84.41;99337.28;1676106;84;20964;-86
2022/09/21 06:01:15;;;;;;;15.65;7.30;;;;;;;10.15;84.23;99333.34;1670200;84;21018;-84
2022/09/21 06:03:47;;;;;;;13.05;6.30;;;;;;;10.22;84.50;99332.76;1672873;86;21518;-88
2022/09/21 06:06:19;;;;;;;23.35;6.70;;;;;;;10.29;84.19;99331.77;1668379;86;21067;-87
2022/09/21 06:08:47;;;;;;;15.10;5.42;;;;;;;10.27;83.82;99323.99;1668456;84;20998;-87
2022/09/21 06:11:15;;;;;;;10.58;5.40;;;;;;;10.23;83.51;99331.44;1669242;84;21058;-82
2022/09/21 06:13:42;;;;;;;11.57;6.00;;;;;;;10.22;83.67;99337.50;1662572;84;21589;-86
2022/09/21 06:16:10;;;;;;;11.00;4.72;;;;;;;10.25;83.75;99332.72;1666139;84;20983;-80
2022/09/21 06:18:40;;;;;;;17.17;5.72;;;;;;;10.30;83.79;99337.39;1661630;84;20959;-82
2022/09/21 06:21:08;;;;;;;14.00;4.92;;;;;;;10.36;83.64;99330.77;1670399;84;21094;-82
2022/09/21 06:23:36;;;;;;;12.35;5.42;;;;;;;10.37;83.55;99336.39;1667649;86;21033;-83
2022/09/21 06:26:03;;;;;;;13.50;4.97;;;;;;;10.32;83.41;99335.61;1668497;84;21023;-88
2022/09/21 06:28:31;;;;;;;11.68;5.47;;;;;;;10.35;83.33;99343.36;1660236;85;20984;-84
2022/09/21 06:30:59;;;;;;;14.33;5.15;;;;;;;10.36;83.28;99346.36;1650584;85;21026;-81
2022/09/21 06:33:27;;;;;;;21.25;4.95;;;;;;;10.29;83.36;99348.66;1659948;85;20995;-85
2022/09/21 06:35:57;;;;;;;25.32;5.50;;;;;;;10.30;83.53;99347.33;1624788;86;21571;-85
2022/09/21 06:38:27;;;;;;;13.75;5.47;;;;;;;10.37;83.78;99348.09;1648875;85;21005;-84
2022/09/21 06:40:55;;;;;;;19.12;5.83;;;;;;;10.44;83.40;99342.31;1644493;85;21089;-86
2022/09/21 06:43:22;;;;;;;8.65;4.40;;;;;;;10.46;83.22;99347.03;1649295;85;20986;-85
2022/09/21 06:45:55;;;;;;;10.65;5.15;;;;;;;10.49;83.35;99345.23;1643038;85;21498;-84
2022/09/21 06:48:24;;;;;;;9.15;4.47;;;;;;;10.55;83.47;99355.50;1650435;85;21010;-83
2022/09/21 06:50:58;;;;;;;8.00;4.50;;;;;;;10.67;83.43;99356.14;1659463;85;21117;-88
2022/09/21 06:53:28;;;;;;;15.20;4.37;;;;;;;10.77;82.92;99358.10;1660600;86;21722;-80
2022/09/21 06:56:06;;;;;;;8.73;4.62;;;;;;;10.80;82.62;99357.56;1661251;83;21084;-80
2022/09/21 06:58:34;;;;;;;11.05;4.80;;;;;;;10.83;82.79;99364.47;1641135;87;21022;-80
2022/09/21 07:01:12;;;;;;;10.10;4.80;;;;;;;10.82;82.46;99362.73;1633980;86;21059;-83
2022/09/21 07:03:41;;;;;;;11.65;4.60;;;;;;;10.86;82.35;99361.36;1669736;85;20990;-84
2022/09/21 07:06:13;;;;;;;12.20;4.58;;;;;;;11.02;82.62;99374.00;1662401;85;21024;-82
2022/09/21 07:08:41;;;;;;;9.73;5.10;;;;;;;11.07;82.44;99364.36;1627331;87;20976;-82
2022/09/21 07:11:12;;;;;;;7.53;4.70;;;;;;;11.03;82.22;99367.47;1669856;84;20963;-87
2022/09/21 07:13:40;;;;;;;7.20;4.70;;;;;;;11.07;82.13;99373.47;1679681;84;21037;-86
2022/09/21 07:16:08;;;;;;;13.25;4.92;;;;;;;11.05;82.33;99374.80;1678178;84;21006;-79
2022/09/21 07:18:38;;;;;;;13.35;4.55;;;;;;;11.09;82.12;99371.69;1670402;84;21009;-84
2022/09/21 07:21:08;;;;;;;8.73;4.20;;;;;;;11.14;82.00;99372.42;1669193;84;21010;-85
2022/09/21 07:23:36;;;;;;;9.75;4.78;;;;;;;11.06;81.82;99374.34;1659921;86;21016;-84
2022/09/21 07:26:11;;;;;;;9.85;4.10;;;;;;;11.09;81.94;99371.69;1674280;86;20998;-82
2022/09/21 07:28:38;;;;;;;11.15;4.42;;;;;;;11.13;81.56;99371.57;1661013;85;20969;-82
2022/09/21 07:31:13;;;;;;;10.38;4.30;;;;;;;11.20;81.87;99382.72;1656694;86;22431;-83
2022/09/21 07:33:43;;;;;;;18.02;4.58;;;;;;;11.18;81.22;99380.59;1661430;86;21013;-84
2022/09/21 07:36:11;;;;;;;8.13;4.00;;;;;;;11.16;81.33;99371.97;1658925;86;21029;-78
2022/09/21 07:38:42;;;;;;;13.60;4.15;;;;;;;11.18;81.23;99379.30;1659449;85;21032;-78
2022/09/21 07:41:12;;;;;;;10.35;5.40;;;;;;;11.25;81.27;99366.53;1675864;85;21542;-79
2022/09/21 07:43:40;;;;;;;7.00;3.80;;;;;;;11.31;80.53;99372.89;1676108;84;20989;-82
2022/09/21 07:46:12;;;;;;;7.80;3.92;;;;;;;11.28;80.71;99374.28;1661601;85;20996;-81
2022/09/21 07:48:40;;;;;;;12.63;4.72;;;;;;;11.29;80.51;99366.87;1671786;84;20961;-84
2022/09/21 07:51:11;;;;;;;5.90;3.58;;;;;;;11.45;80.63;99365.20;1677146;84;20963;-84
2022/09/21 07:53:40;;;;;;;7.28;3.55;;;;;;;11.46;80.20;99365.17;1662357;84;21044;-84
2022/09/21 07:56:15;;;;;;;9.83;3.98;;;;;;;11.48;79.32;99361.20;1662444;85;21040;-84
2022/09/21 08:01:30;;;;;;;7.58;4.20;;;;;;;11.60;80.13;99368.74;1655463;86;22271;-81
2022/09/21 08:03:59;;;;;;;8.15;4.25;;;;;;;11.71;79.84;99364.09;1673213;84;21451;-81
2022/09/21 08:06:29;;;;;;;8.85;4.17;;;;;;;11.85;80.06;99366.34;1669773;84;21507;-84
2022/09/21 08:08:58;;;;;;;7.62;3.83;;;;;;;12.00;79.61;99369.05;1657506;85;21114;-84
2022/09/21 08:11:29;;;;;;;6.75;3.77;;;;;;;12.20;79.62;99362.45;1670868;86;21058;-83
2022/09/21 08:14:00;;;;;;;7.75;4.10;;;;;;;12.36;79.54;99367.64;1660476;85;21037;-83
2022/09/21 08:16:30;;;;;;;6.85;3.45;;;;;;;12.60;79.38;99365.23;1669608;85;21054;-85
2022/09/21 08:18:57;;;;;;;7.58;3.77;;;;;;;12.88;78.86;99369.18;1669341;84;21061;-85
2022/09/21 08:21:25;;;;;;;7.08;3.12;;;;;;;13.04;76.09;99364.35;1668392;86;21045;-84
2022/09/21 08:23:53;;;;;;;11.25;3.27;;;;;;;13.13;75.82;99364.08;1672514;86;20975;-82
2022/09/21 08:26:22;;;;;;;5.30;2.92;;;;;;;13.27;75.79;99357.96;1662744;85;21066;-82
2022/09/21 08:28:52;;;;;;;7.87;3.20;;;;;;;13.21;74.81;99364.69;1666761;86;21851;-82
2022/09/21 08:31:22;;;;;;;6.83;3.22;;;;;;;13.30;74.12;99371.39;1657814;85;21010;-80
2022/09/21 08:33:51;;;;;;;7.37;3.20;;;;;;;13.46;76.01;99371.30;1654867;85;20997;-83
2022/09/21 08:36:19;;;;;;;5.05;2.70;;;;;;;13.66;73.85;99375.86;1659658;85;21520;-81
2022/09/21 08:38:47;;;;;;;7.87;2.90;;;;;;;13.82;74.22;99371.44;1667683;84;21142;-82
2022/09/21 08:41:49;;;;;;;5.45;3.20;;;;;;;13.98;74.43;99368.69;1670967;84;21081;-83
2022/09/21 08:44:39;;;;;;;5.62;2.80;;;;;;;14.20;74.49;99370.56;1661134;85;21050;-79
2022/09/21 08:47:15;;;;;;;5.28;3.15;;;;;;;14.47;74.18;99368.26;1667336;86;21054;-83
2022/09/21 08:49:48;;;;;;;5.17;2.70;;;;;;;14.78;73.77;99376.75;1669270;84;20998;-81
2022/09/21 08:52:18;;;;;;;6.60;2.35;;;;;;;15.06;72.81;99377.85;1667721;86;21019;-81
2022/09/21 08:54:59;;;;;;;3.70;2.20;;;;;;;15.13;70.18;99380.64;1666242;84;22212;-82
2022/09/21 08:57:32;;;;;;;4.42;2.15;;;;;;;15.04;68.24;99375.75;1650529;86;21053;-81
2022/09/21 09:00:03;;;;;;;4.17;2.20;;;;;;;15.14;70.58;99372.32;1662207;84;21041;-81
2022/09/21 09:02:57;;;;;;;4.50;2.47;;;;;;;15.10;67.03;99372.45;1664659;86;21050;-83
2022/09/21 09:05:37;;;;;;;;;;;;;;;15.01;65.49;99367.56;1669060;84;21017;-81
2022/09/21 09:08:43;;;;;;;5.10;2.35;;;;;;;14.99;67.50;99365.47;1670821;84;20116;-82
2022/09/21 09:11:42;;;;;;;4.80;2.42;;;;;;;15.04;67.84;99365.28;1667599;84;21006;-82
2022/09/21 09:14:59;;;;;;;6.15;3.80;;;;;;;14.89;67.49;99362.81;1582295;86;21019;-83
2022/09/21 09:17:44;;;;;;;5.87;2.67;;;;;;;14.73;64.38;99356.00;1655449;85;20963;-80
2022/09/21 09:20:22;;;;;;;4.42;2.45;;;;;;;14.66;66.75;99359.32;1625279;87;21488;-83
2022/09/21 09:23:04;;;;;;;5.28;2.72;;;;;;;14.62;67.67;99359.47;1630932;86;21003;-80
2022/09/21 09:25:41;;;;;;;5.22;2.60;;;;;;;14.58;67.85;99347.41;1668335;84;21064;-83
2022/09/21 09:28:29;;;;;;;6.58;2.95;;;;;;;14.51;67.26;99348.08;1662352;86;21026;-82
2022/09/21 09:31:04;;;;;;;4.00;2.27;;;;;;;14.51;66.87;99343.69;1660814;84;21022;-79
2022/09/21 09:34:10;;;;;;;4.75;2.00;;;;;;;14.51;67.07;99340.23;1674607;84;21034;-82
2022/09/21 09:36:43;;;;;;;4.50;2.20;;;;;;;14.44;67.74;99329.16;1668331;86;21497;-86
2022/09/21 09:39:16;;;;;;;5.55;2.75;;;;;;;14.46;67.55;99333.87;1666508;86;20986;-78
2022/09/21 09:42:18;;;;;;;5.62;2.35;;;;;;;14.56;68.69;99332.20;1663171;86;20997;-81
2022/09/21 09:45:03;;;;;;;3.92;2.20;;;;;;;14.66;66.77;99338.38;1671760;84;21508;-82
2022/09/21 09:47:58;;;;;;;4.20;2.35;;;;;;;14.64;67.51;99335.41;1664966;86;20974;-81
2022/09/21 09:50:39;;;;;;;3.98;2.47;;;;;;;14.70;66.57;99331.24;1570872;90;21088;-79
2022/09/21 09:53:12;;;;;;;8.23;3.55;;;;;;;14.79;67.74;99324.83;1644395;86;20982;-82
2022/09/21 09:55:48;;;;;;;8.33;2.72;;;;;;;14.93;67.18;99324.29;1668975;86;21046;-79
2022/09/21 09:58:20;;;;;;;6.22;2.40;;;;;;;14.99;66.75;99329.28;1668974;84;21388;-80
2022/09/21 10:00:55;;;;;;;8.33;2.87;;;;;;;14.88;65.91;99326.63;1670227;85;21549;-83
2022/09/21 10:03:25;;;;;;;6.35;2.60;;;;;;;14.81;65.55;99333.47;1671333;86;21063;-84
2022/09/21 10:05:54;;;;;;;6.22;2.90;;;;;;;14.77;64.85;99331.42;1653631;86;21018;-82
2022/09/21 10:08:45;;;;;;;6.62;4.33;;;;;;;14.76;66.80;99329.70;1672212;86;20978;-85
2022/09/21 10:11:15;;;;;;;4.72;2.92;;;;;;;14.69;64.82;99332.17;1664886;86;21009;-83
2022/09/21 10:13:48;;;;;;;4.30;2.22;;;;;;;14.77;66.35;99324.88;1657151;85;21024;-81
2022/09/21 10:16:21;;;;;;;7.28;2.37;;;;;;;14.82;65.77;99321.64;1656201;86;21884;-82
2022/09/21 10:18:51;;;;;;;;;;;;;;;14.90;65.39;99322.63;1667702;85;21011;-80
2022/09/21 10:21:23;;;;;;;3.50;2.02;;;;;;;15.00;63.39;99323.99;1670037;85;20144;-82
2022/09/21 10:24:02;;;;;;;4.25;1.92;;;;;;;15.17;65.23;99323.30;1660286;85;20984;-84
2022/09/21 10:26:49;;;;;;;4.25;2.02;;;;;;;15.10;63.09;99325.79;1627180;87;21492;-82
2022/09/21 10:29:25;;;;;;;3.65;1.90;;;;;;;15.04;61.79;99314.22;1636067;86;21038;-82
2022/09/21 10:32:07;;;;;;;2.80;1.62;;;;;;;15.21;63.72;99311.78;1670849;86;21037;-83
2022/09/21 10:34:35;;;;;;;2.62;1.60;;;;;;;15.19;62.77;99303.61;1662838;85;21042;-86
2022/09/21 10:37:25;;;;;;;1.92;1.40;;;;;;;15.27;62.55;99290.58;1663792;84;20984;-85
2022/09/21 10:39:53;;;;;;;3.90;1.55;;;;;;;15.50;61.49;99284.86;1551976;91;21036;-81
2022/09/21 10:42:21;;;;;;;4.65;2.30;;;;;;;15.53;61.05;99289.95;1637132;86;21019;-81
2022/09/21 10:44:52;;;;;;;2.55;1.50;;;;;;;15.65;59.98;99284.66;1672113;85;21005;-80
2022/09/21 10:47:31;;;;;;;4.35;1.30;;;;;;;15.80;59.42;99284.03;1667944;86;21047;-79
2022/09/21 10:50:03;;;;;;;1.98;1.20;;;;;;;15.82;57.54;99290.52;1658430;85;21016;-82
2022/09/21 10:52:38;;;;;;;2.00;1.30;;;;;;;15.81;58.24;99290.12;1625047;87;21768;-79
2022/09/21 10:55:16;;;;;;;2.35;1.00;;;;;;;15.95;59.17;99289.05;1633862;86;21021;-83
2022/09/21 10:57:45;;;;;;;3.30;1.00;;;;;;;16.12;58.26;99280.45;1654113;85;21044;-82
2022/09/21 11:00:28;;;;;;;6.65;1.50;;;;;;;16.09;55.76;99284.50;1664372;84;21012;-83
2022/09/21 11:02:59;;;;;;;1.72;1.22;;;;;;;16.17;56.60;99273.67;1663956;84;21042;-83
2022/09/21 11:05:32;;;;;;;3.67;1.47;;;;;;;16.26;55.77;99271.95;1665581;86;21006;-83
2022/09/21 11:08:07;;;;;;;2.62;1.10;;;;;;;16.34;55.37;99273.77;1671666;86;21025;-80
2022/09/21 11:10:58;;;;;;;4.12;1.00;;;;;;;16.36;53.19;99275.86;1665680;85;21034;-84
2022/09/21 11:13:55;;;;;;;3.72;1.42;;;;;;;16.29;52.47;99273.98;1670212;85;21022;-83
2022/09/21 11:16:40;;;;;;;1.02;0.90;;;;;;;16.39;52.35;99269.61;1665762;85;20986;-80
2022/09/21 11:19:37;;;;;;;2.25;0.80;;;;;;;16.56;54.39;99279.34;1664120;84;21062;-80
2022/09/21 11:22:41;;;;;;;2.45;0.75;;;;;;;16.65;48.05;99284.13;1644743;85;21038;-84
2022/09/21 11:25:30;;;;;;;2.27;0.82;;;;;;;16.72;53.11;99273.75;1621542;87;21541;-79
2022/09/21 11:28:03;;;;;;;1.70;1.00;;;;;;;16.84;48.89;99264.47;1630015;86;21027;-80
2022/09/21 11:30:45;;;;;;;6.78;1.95;;;;;;;17.10;50.41;99257.94;1667134;86;21022;-83
2022/09/21 11:33:24;;;;;;;1.85;1.00;;;;;;;17.22;50.36;99252.55;1668201;86;21510;-78
2022/09/21 11:36:06;;;;;;;1.65;1.07;;;;;;;17.59;53.07;99256.80;1665163;84;21026;-85
2022/09/21 11:38:54;;;;;;;3.35;1.07;;;;;;;17.89;52.47;99251.75;1669108;84;21025;-86
2022/09/21 11:41:51;;;;;;;3.40;1.20;;;;;;;18.07;50.71;99252.55;1667807;84;21030;-83
2022/09/21 11:44:47;;;;;;;2.77;0.98;;;;;;;18.34;47.30;99251.98;1665679;84;21019;-81
2022/09/21 11:47:43;;;;;;;2.15;1.20;;;;;;;18.35;45.59;99253.70;1616975;87;21029;-83
2022/09/21 11:50:37;;;;;;;2.52;1.10;;;;;;;18.37;48.62;99249.20;1624166;86;21220;-82
2022/09/21 11:53:25;;;;;;;1.77;1.20;;;;;;;18.62;50.24;99242.56;1622413;86;21045;-81
2022/09/21 11:56:04;;;;;;;1.20;1.10;;;;;;;18.95;47.42;99245.11;1632008;86;21165;-80
2022/09/21 11:59:09;;;;;;;1.12;0.80;;;;;;;19.26;48.45;99240.25;1638246;86;21039;-86
2022/09/21 12:01:54;;;;;;;1.87;1.10;;;;;;;19.37;47.77;99241.39;1630128;86;21020;-85
2022/09/21 12:04:42;;;;;;;0.80;0.65;;;;;;;19.68;46.84;99239.11;1630245;86;21047;-88
2022/09/21 12:07:31;;;;;;;3.62;0.93;;;;;;;20.15;49.13;99235.35;1631822;86;21022;-86
2022/09/21 12:10:33;;;;;;;1.70;1.00;;;;;;;20.60;47.89;99228.14;1629357;88;21022;-88
2022/09/21 12:13:39;;;;;;;1.72;1.30;;;;;;;20.84;45.21;99227.50;1631227;88;20987;-88
2022/09/21 12:16:21;;;;;;;1.77;1.05;;;;;;;21.16;43.35;99225.85;1629983;88;20979;-87
2022/09/21 12:19:14;;;;;;;3.22;1.05;;;;;;;21.61;43.13;99220.60;1633303;87;21075;-86
2022/09/21 12:21:48;;;;;;;2.45;1.07;;;;;;;21.74;43.13;99225.04;1579779;88;21555;-87